Time;durP1;ratioP1;P1;durP2;ratioP2;P2;SDS_P1;SDS_P2;PMS_P1;PMS_P2;Temp;Humidity;BMP_temperature;BMP_pressure;BME280_temperature;BME280_humidity;BME280_pressure;Samples;Min_cycle;Max_cycle;Signal;HPM_P1;HPM_P2
2023/08/31 00:01:30;;;;;;;14.88;6.93;;;;;;;15.35;77.52;99237.84;5120630;27;20046;-71
2023/08/31 00:03:55;;;;;;;13.93;6.80;;;;;;;15.23;77.92;99239.06;5100765;27;20477;-76
2023/08/31 00:06:21;;;;;;;14.20;6.88;;;;;;;15.22;78.20;99235.53;5118668;27;20039;-71
2023/08/31 00:08:47;;;;;;;11.18;7.22;;;;;;;15.24;78.42;99246.09;5117798;27;20050;-74
2023/08/31 00:11:12;;;;;;;11.27;7.03;;;;;;;15.36;78.21;99242.22;5072698;27;20047;-75
2023/08/31 00:13:38;;;;;;;11.10;7.72;;;;;;;15.40;78.38;99250.84;5111584;27;20046;-74
2023/08/31 00:16:04;;;;;;;16.38;7.15;;;;;;;15.40;78.38;99250.84;5117384;27;20034;-74
2023/08/31 00:18:30;;;;;;;12.63;8.02;;;;;;;15.41;78.06;99258.75;5116850;27;20499;-74
2023/08/31 00:20:55;;;;;;;16.05;7.70;;;;;;;15.55;78.76;99270.88;5117333;27;20042;-76
2023/08/31 00:23:20;;;;;;;20.15;7.82;;;;;;;15.57;78.78;99252.78;5114559;27;20042;-73
2023/08/31 00:33:58;;;;;;;17.42;8.18;;;;;;;15.42;78.57;99240.81;4843328;29;20059;-74
2023/08/31 00:36:23;;;;;;;15.90;8.65;;;;;;;15.30;79.58;99244.69;4856383;29;20535;-74
2023/08/31 00:38:49;;;;;;;11.88;7.68;;;;;;;15.19;80.12;99253.78;4856174;29;20087;-75
2023/08/31 00:41:14;;;;;;;14.40;7.40;;;;;;;15.25;80.62;99243.28;4841149;29;20060;-76
2023/08/31 00:43:39;;;;;;;14.82;9.13;;;;;;;15.28;80.10;99250.19;4841940;29;20056;-72
2023/08/31 00:46:05;;;;;;;17.27;9.00;;;;;;;15.24;80.48;99256.84;4841461;29;20048;-71
2023/08/31 00:48:30;;;;;;;14.52;9.07;;;;;;;15.20;80.79;99250.94;4841569;29;20061;-79
2023/08/31 00:50:55;;;;;;;24.20;9.50;;;;;;;15.23;80.60;99241.75;4856774;29;20056;-77
2023/08/31 00:53:21;;;;;;;14.55;9.60;;;;;;;15.26;80.37;99244.97;4842193;29;20579;-73
2023/08/31 00:55:47;;;;;;;14.88;10.48;;;;;;;15.25;80.43;99263.91;4842301;29;20056;-74
2023/08/31 00:58:12;;;;;;;16.45;9.63;;;;;;;15.21;80.89;99247.28;4841412;29;20068;-73
2023/08/31 01:01:14;;;;;;;17.70;10.18;;;;;;;15.29;80.96;99264.47;4841141;29;20057;-74
2023/08/31 01:03:42;;;;;;;12.98;9.63;;;;;;;15.25;80.74;99237.06;4841328;29;20049;-81
2023/08/31 01:06:44;;;;;;;16.20;10.70;;;;;;;15.22;81.03;99240.91;4885719;29;20047;-75
2023/08/31 01:09:25;;;;;;;18.75;11.02;;;;;;;15.23;80.98;99241.75;4841205;29;20045;-75
2023/08/31 01:12:11;;;;;;;17.83;10.43;;;;;;;15.13;80.96;99238.25;4944182;28;20049;-75
2023/08/31 01:14:51;;;;;;;17.67;10.65;;;;;;;15.09;81.67;99258.34;4957518;28;20053;-72
2023/08/31 01:17:19;;;;;;;14.27;10.07;;;;;;;15.05;81.84;99246.22;4973791;28;20045;-70
2023/08/31 01:19:50;;;;;;;20.73;11.80;;;;;;;15.07;81.78;99252.28;4973340;28;20089;-71
2023/08/31 01:22:43;;;;;;;14.93;10.57;;;;;;;15.10;81.73;99244.78;4971694;28;20054;-71
2023/08/31 01:25:09;;;;;;;17.58;11.02;;;;;;;15.05;81.57;99230.09;4934996;28;20049;-70
2023/08/31 01:27:36;;;;;;;18.15;10.45;;;;;;;15.03;81.60;99232.06;4937586;28;20446;-71
2023/08/31 01:30:03;;;;;;;17.52;11.60;;;;;;;15.03;81.83;99232.06;4953662;28;20054;-72
2023/08/31 01:32:32;;;;;;;19.65;12.10;;;;;;;15.04;81.51;99236.47;4938893;28;20050;-72
2023/08/31 01:35:01;;;;;;;24.20;11.57;;;;;;;15.01;81.72;99256.38;4973075;28;20046;-70
2023/08/31 01:38:04;;;;;;;15.50;10.50;;;;;;;15.14;81.71;99250.69;4972947;28;20057;-72
2023/08/31 01:40:32;;;;;;;15.73;11.50;;;;;;;15.07;81.61;99234.34;4896057;29;20051;-71
2023/08/31 01:42:58;;;;;;;16.90;10.18;;;;;;;15.04;82.25;99239.13;4925344;28;20053;-71
2023/08/31 01:45:25;;;;;;;14.68;10.00;;;;;;;15.05;82.39;99238.16;4995687;28;20059;-70
2023/08/31 01:47:52;;;;;;;19.30;11.15;;;;;;;15.04;82.79;99255.25;5012276;28;20045;-70
2023/08/31 01:50:18;;;;;;;14.52;10.38;;;;;;;15.08;82.76;99235.19;4998242;28;20446;-70
2023/08/31 01:52:43;;;;;;;15.90;10.48;;;;;;;15.19;82.18;99226.94;4999617;28;20048;-71
2023/08/31 01:55:08;;;;;;;15.40;9.77;;;;;;;15.18;82.00;99230.59;4999820;28;20148;-74
2023/08/31 01:57:34;;;;;;;18.48;10.32;;;;;;;15.22;81.54;99226.66;4999600;28;20048;-70
2023/08/31 02:00:09;;;;;;;18.08;10.73;;;;;;;15.23;81.56;99234.56;4996336;28;20056;-69
2023/08/31 02:02:41;;;;;;;14.75;10.75;;;;;;;15.18;81.75;99222.56;5010420;28;20549;-69
2023/08/31 02:05:07;;;;;;;16.10;10.90;;;;;;;15.22;81.54;99232.00;5010158;28;20435;-73
2023/08/31 02:07:33;;;;;;;21.63;11.18;;;;;;;15.21;81.15;99223.09;5014966;28;20061;-74
2023/08/31 02:09:58;;;;;;;14.20;9.48;;;;;;;15.22;81.13;99222.13;5000814;28;20045;-75
2023/08/31 02:12:23;;;;;;;17.40;10.57;;;;;;;15.21;80.90;99224.94;5013116;28;20045;-73
2023/08/31 02:14:49;;;;;;;16.23;11.20;;;;;;;15.18;81.27;99220.72;5017265;28;20037;-73
2023/08/31 02:17:14;;;;;;;16.27;10.15;;;;;;;15.10;81.90;99227.81;5071937;27;20412;-76
2023/08/31 02:19:39;;;;;;;17.45;10.43;;;;;;;15.05;81.43;99233.63;5099148;27;20038;-73
2023/08/31 02:22:05;;;;;;;19.45;11.13;;;;;;;14.99;81.90;99212.75;5080358;27;20059;-76
2023/08/31 02:24:30;;;;;;;18.77;10.18;;;;;;;14.97;82.08;99209.38;5111384;27;20043;-73
2023/08/31 02:26:56;;;;;;;19.67;12.15;;;;;;;15.04;82.24;99220.34;5095252;27;20049;-76
2023/08/31 02:29:21;;;;;;;14.02;10.10;;;;;;;14.90;82.45;99206.41;5116197;27;20031;-71
2023/08/31 02:31:46;;;;;;;15.32;9.75;;;;;;;14.83;83.08;99248.25;5118293;27;20042;-70
2023/08/31 02:34:11;;;;;;;15.50;10.63;;;;;;;14.81;83.82;99227.94;5118868;27;20039;-69
2023/08/31 02:36:37;;;;;;;17.80;11.18;;;;;;;14.85;83.44;99230.19;5100469;27;20050;-70
2023/08/31 02:39:03;;;;;;;17.70;11.10;;;;;;;14.98;83.18;99250.47;5099739;27;20042;-71
2023/08/31 02:41:28;;;;;;;19.27;11.23;;;;;;;14.96;83.10;99236.34;5099435;27;20062;-70
2023/08/31 02:43:54;;;;;;;19.83;12.25;;;;;;;14.97;82.93;99255.00;5083156;27;20042;-71
2023/08/31 02:46:19;;;;;;;17.40;10.95;;;;;;;14.83;83.76;99242.06;5100380;27;20046;-71
2023/08/31 02:48:44;;;;;;;25.63;12.70;;;;;;;14.85;84.12;99235.56;5100132;27;20042;-70
2023/08/31 02:51:09;;;;;;;21.75;11.80;;;;;;;14.82;84.26;99230.47;5100220;27;20516;-72
2023/08/31 02:53:35;;;;;;;19.65;11.70;;;;;;;14.84;84.33;99231.16;5095760;27;20128;-70
2023/08/31 02:56:00;;;;;;;22.35;12.40;;;;;;;14.76;84.82;99233.75;5099840;27;20034;-70
2023/08/31 02:58:28;;;;;;;22.65;13.77;;;;;;;14.78;84.67;99250.56;5097401;27;20527;-71
2023/08/31 03:00:53;;;;;;;21.13;12.55;;;;;;;14.77;84.94;99231.91;5100012;27;20042;-71
2023/08/31 03:03:19;;;;;;;20.30;11.95;;;;;;;14.74;85.20;99194.63;5099331;27;20058;-69
2023/08/31 03:05:45;;;;;;;22.27;12.73;;;;;;;14.78;84.93;99218.34;5065366;27;20074;-70
2023/08/31 03:08:10;;;;;;;20.38;13.05;;;;;;;14.81;85.01;99225.25;5099572;27;20058;-71
2023/08/31 03:10:38;;;;;;;19.38;12.55;;;;;;;14.75;85.49;99229.38;5077621;27;20063;-70
2023/08/31 03:13:03;;;;;;;21.00;12.75;;;;;;;14.83;85.35;99237.53;5062434;27;20054;-74
2023/08/31 03:15:28;;;;;;;13.80;9.18;;;;;;;14.85;85.41;99227.50;5109237;27;20042;-76
2023/08/31 03:17:54;;;;;;;18.92;12.23;;;;;;;14.95;85.21;99235.50;5100585;27;20042;-73
2023/08/31 03:20:19;;;;;;;15.88;11.73;;;;;;;14.88;85.01;99229.06;5100581;27;20488;-75
2023/08/31 03:22:44;;;;;;;17.75;12.32;;;;;;;14.92;84.96;99222.38;5100398;27;20420;-72
2023/08/31 03:25:10;;;;;;;21.45;12.80;;;;;;;14.93;85.23;99209.81;5080164;27;20058;-74
2023/08/31 03:27:35;;;;;;;17.13;11.35;;;;;;;15.02;85.13;99219.66;5112703;27;20110;-74
2023/08/31 03:30:03;;;;;;;20.08;12.75;;;;;;;15.02;85.06;99215.13;5098765;27;20050;-74
2023/08/31 03:32:28;;;;;;;26.42;11.65;;;;;;;15.14;85.03;99219.31;5074779;27;20046;-73
2023/08/31 03:34:53;;;;;;;18.80;11.63;;;;;;;15.20;84.43;99223.25;5080363;27;20064;-73
2023/08/31 03:37:19;;;;;;;20.58;13.55;;;;;;;15.26;84.18;99223.50;5077734;27;20054;-74
2023/08/31 03:39:47;;;;;;;19.60;12.10;;;;;;;15.22;84.45;99238.22;5098149;27;20034;-74
2023/08/31 03:42:12;;;;;;;18.95;11.55;;;;;;;15.31;84.57;99227.56;5099946;27;20042;-73
2023/08/31 03:44:37;;;;;;;17.63;11.77;;;;;;;15.41;84.61;99231.91;5099183;27;20042;-75
2023/08/31 03:47:04;;;;;;;22.80;11.48;;;;;;;15.53;83.94;99236.06;5100009;27;20775;-76
2023/08/31 03:49:31;;;;;;;18.42;11.80;;;;;;;15.62;83.77;99239.72;5081982;27;20046;-76
2023/08/31 03:51:57;;;;;;;20.88;12.20;;;;;;;15.74;82.73;99238.50;5099357;27;20042;-75
2023/08/31 03:54:23;;;;;;;23.00;11.73;;;;;;;15.74;82.12;99234.97;5099595;27;20386;-76
2023/08/31 03:56:48;;;;;;;20.13;12.57;;;;;;;15.78;82.17;99231.00;5082292;27;20058;-74
2023/08/31 03:59:14;;;;;;;22.80;13.02;;;;;;;15.87;81.67;99238.13;5101051;27;20047;-75
2023/08/31 04:01:39;;;;;;;20.38;12.55;;;;;;;15.93;81.59;99238.34;5099297;27;20038;-75
2023/08/31 04:04:05;;;;;;;18.70;10.50;;;;;;;16.03;81.59;99243.66;5099192;27;20489;-76
2023/08/31 04:06:31;;;;;;;20.35;11.73;;;;;;;16.13;80.98;99265.13;5117571;27;20153;-75
2023/08/31 04:08:56;;;;;;;17.17;11.73;;;;;;;16.19;80.20;99238.44;5117567;27;20065;-76
2023/08/31 04:11:21;;;;;;;17.73;11.50;;;;;;;16.22;80.16;99245.34;5098795;27;20053;-75
2023/08/31 04:13:47;;;;;;;21.30;12.13;;;;;;;16.30;80.10;99253.47;5098507;27;20050;-75
2023/08/31 04:16:13;;;;;;;18.52;12.07;;;;;;;16.41;79.40;99257.78;5099623;27;20524;-75
2023/08/31 04:18:38;;;;;;;19.95;13.18;;;;;;;16.51;79.05;99253.97;5081827;27;20054;-75
2023/08/31 04:21:03;;;;;;;23.98;14.43;;;;;;;16.55;78.45;99250.00;5099377;27;20061;-75
2023/08/31 04:23:29;;;;;;;20.70;12.13;;;;;;;16.52;78.08;99262.91;5099254;27;20042;-75
2023/08/31 04:25:54;;;;;;;17.92;12.82;;;;;;;16.49;77.84;99260.53;5117410;27;20763;-76
2023/08/31 04:28:20;;;;;;;22.33;12.02;;;;;;;16.46;77.71;99261.69;5098211;27;20047;-75
2023/08/31 04:30:45;;;;;;;21.00;12.95;;;;;;;16.46;77.57;99266.22;5094723;27;20386;-72
2023/08/31 04:33:10;;;;;;;25.50;13.05;;;;;;;16.42;77.39;99264.84;5094367;27;20060;-73
2023/08/31 04:35:35;;;;;;;19.45;11.95;;;;;;;16.36;77.62;99260.94;5094579;27;20043;-73
2023/08/31 04:38:00;;;;;;;21.15;13.65;;;;;;;16.40;77.72;99258.78;5095960;27;20043;-72
2023/08/31 04:40:28;;;;;;;33.28;16.17;;;;;;;16.32;77.72;99238.88;5077459;27;20429;-74
2023/08/31 04:42:53;;;;;;;21.17;13.30;;;;;;;16.30;78.16;99250.78;5096144;27;20050;-76
2023/08/31 04:45:18;;;;;;;22.27;13.82;;;;;;;16.37;78.09;99267.13;5096109;27;20043;-75
2023/08/31 04:47:44;;;;;;;22.00;13.32;;;;;;;16.43;77.75;99283.53;5095835;27;20413;-74
2023/08/31 04:50:09;;;;;;;28.98;14.38;;;;;;;16.47;77.75;99266.09;5096366;27;20042;-77
2023/08/31 04:52:34;;;;;;;17.92;12.50;;;;;;;16.57;77.89;99274.06;5094574;27;20451;-74
2023/08/31 04:55:09;;;;;;;21.88;13.00;;;;;;;16.72;78.22;99277.88;5096397;27;20043;-74
2023/08/31 04:57:34;;;;;;;21.13;13.10;;;;;;;16.88;77.67;99266.38;5095413;27;20064;-74
2023/08/31 04:59:59;;;;;;;18.17;12.30;;;;;;;17.05;77.20;99279.78;5095691;27;20043;-73
2023/08/31 05:02:25;;;;;;;17.55;11.95;;;;;;;17.24;76.77;99257.16;5095932;27;20047;-73
2023/08/31 05:04:50;;;;;;;22.83;12.23;;;;;;;17.41;75.84;99252.69;5094347;27;20140;-74
2023/08/31 05:07:15;;;;;;;22.38;12.93;;;;;;;17.48;75.15;99253.75;5098587;27;20058;-75
2023/08/31 05:09:41;;;;;;;21.38;13.27;;;;;;;17.51;74.28;99264.16;5095162;27;20385;-76
2023/08/31 05:12:07;;;;;;;26.80;12.85;;;;;;;17.48;73.68;99252.88;5096518;27;20046;-76
2023/08/31 05:14:32;;;;;;;19.63;12.35;;;;;;;17.38;74.03;99247.63;5095604;27;20536;-76
2023/08/31 05:16:57;;;;;;;19.65;13.27;;;;;;;17.28;74.13;99246.91;5101441;27;20500;-76
2023/08/31 05:19:23;;;;;;;23.35;14.20;;;;;;;17.23;74.18;99251.94;5116110;27;20065;-75
2023/08/31 05:21:48;;;;;;;21.23;12.55;;;;;;;17.41;74.52;99258.91;5118083;27;20841;-75
2023/08/31 05:24:13;;;;;;;22.63;13.77;;;;;;;17.82;73.92;99267.19;5100057;27;20042;-73
2023/08/31 05:26:39;;;;;;;18.00;11.77;;;;;;;18.38;73.62;99274.50;5140407;27;20022;-72
2023/08/31 05:29:05;;;;;;;27.85;12.13;;;;;;;19.02;72.15;99266.53;5117398;27;20045;-69
2023/08/31 05:31:30;;;;;;;17.92;12.45;;;;;;;19.50;69.85;99281.78;5103284;27;20050;-71
2023/08/31 05:33:55;;;;;;;19.65;12.60;;;;;;;20.10;68.43;99262.16;5115888;27;20488;-71
2023/08/31 05:36:20;;;;;;;20.08;12.90;;;;;;;20.75;66.26;99289.63;5115670;27;20050;-70
2023/08/31 05:38:45;;;;;;;19.67;12.43;;;;;;;21.29;63.88;99265.03;5120608;27;20042;-70
2023/08/31 05:41:11;;;;;;;22.02;11.55;;;;;;;21.39;62.33;99265.59;5118116;27;20042;-69
2023/08/31 05:43:36;;;;;;;17.95;11.13;;;;;;;21.49;62.10;99266.13;5116935;27;20516;-70
2023/08/31 05:46:02;;;;;;;18.88;11.13;;;;;;;21.63;61.63;99278.00;5098548;27;20109;-71
2023/08/31 05:48:27;;;;;;;15.98;10.75;;;;;;;21.95;61.14;99280.28;5100992;27;20420;-69
2023/08/31 05:50:53;;;;;;;18.20;11.70;;;;;;;22.37;59.48;99297.66;5115392;27;20066;-69
2023/08/31 05:53:19;;;;;;;20.02;10.88;;;;;;;23.10;57.86;99285.59;5115451;27;20488;-68
2023/08/31 05:55:44;;;;;;;16.45;10.65;;;;;;;23.82;55.58;99299.63;5115697;27;20042;-69
2023/08/31 05:58:09;;;;;;;18.92;10.40;;;;;;;24.50;53.39;99258.75;5116022;27;20057;-69
2023/08/31 06:00:35;;;;;;;14.73;9.70;;;;;;;25.05;51.51;99282.09;5115413;27;20046;-70
2023/08/31 06:03:00;;;;;;;17.80;9.73;;;;;;;25.75;49.53;99290.53;5115526;27;20497;-70
2023/08/31 06:05:27;;;;;;;17.15;10.27;;;;;;;26.47;48.35;99290.19;5096959;27;20045;-71
2023/08/31 06:07:52;;;;;;;13.50;9.40;;;;;;;27.30;46.14;99285.31;5115289;27;20054;-70
2023/08/31 06:10:17;;;;;;;16.88;9.05;;;;;;;27.90;43.60;99288.22;5115362;27;20066;-69
2023/08/31 06:12:42;;;;;;;12.65;8.93;;;;;;;28.00;43.41;99285.78;5115151;27;20050;-69
2023/08/31 06:15:08;;;;;;;20.67;9.77;;;;;;;28.22;42.58;99285.34;5115358;27;20072;-70
2023/08/31 06:17:34;;;;;;;10.00;7.93;;;;;;;28.79;41.77;99278.34;5101856;27;20046;-70
2023/08/31 06:20:00;;;;;;;11.13;8.20;;;;;;;29.35;40.84;99282.41;5115274;27;20039;-71
2023/08/31 06:22:25;;;;;;;11.88;8.30;;;;;;;29.98;39.98;99274.25;5115204;27;20435;-69
2023/08/31 06:24:51;;;;;;;14.95;8.63;;;;;;;30.01;38.61;99270.19;5115228;27;20038;-72
2023/08/31 06:27:17;;;;;;;11.57;7.95;;;;;;;29.93;38.65;99263.94;5096802;27;20064;-71
2023/08/31 06:29:42;;;;;;;12.27;7.65;;;;;;;29.84;38.26;99248.91;5115274;27;20042;-71
2023/08/31 06:32:07;;;;;;;14.80;8.57;;;;;;;29.77;37.53;99264.72;5096854;27;20042;-70
2023/08/31 06:34:33;;;;;;;11.80;7.50;;;;;;;29.70;38.29;99269.50;5096830;27;20822;-71
2023/08/31 06:36:59;;;;;;;11.00;7.32;;;;;;;29.94;37.85;99262.88;5100866;27;20046;-69
2023/08/31 06:39:24;;;;;;;12.70;7.93;;;;;;;30.37;37.09;99277.16;5119856;27;20054;-71
2023/08/31 06:41:50;;;;;;;11.13;7.65;;;;;;;30.27;35.99;99275.91;5101868;27;20386;-71
2023/08/31 06:44:15;;;;;;;15.43;9.30;;;;;;;30.20;36.20;99277.16;5101195;27;20049;-69
2023/08/31 06:46:40;;;;;;;12.65;6.82;;;;;;;30.29;36.36;99272.91;5100408;27;20046;-71
2023/08/31 06:49:05;;;;;;;11.48;7.38;;;;;;;31.30;35.59;99269.16;5118882;27;20050;-70
2023/08/31 06:51:32;;;;;;;7.60;6.22;;;;;;;32.14;34.14;99266.16;5119042;27;20046;-71
2023/08/31 06:54:04;;;;;;;8.82;7.10;;;;;;;33.20;32.48;99271.84;5118946;27;20041;-71
2023/08/31 06:56:29;;;;;;;10.05;7.90;;;;;;;33.99;32.01;99266.22;5095621;27;20047;-72
2023/08/31 06:58:54;;;;;;;10.82;6.93;;;;;;;34.08;31.28;99270.16;5100389;27;20027;-72
2023/08/31 07:01:20;;;;;;;10.82;7.60;;;;;;;34.49;30.47;99267.50;5119197;27;20053;-70
2023/08/31 07:03:45;;;;;;;9.77;7.38;;;;;;;34.08;30.21;99269.31;5119119;27;20046;-70
2023/08/31 07:06:11;;;;;;;15.55;8.45;;;;;;;33.67;30.26;99279.34;5082978;27;20046;-71
2023/08/31 07:08:37;;;;;;;10.32;7.93;;;;;;;32.97;30.49;99306.19;5118864;27;20069;-71
2023/08/31 07:11:02;;;;;;;12.35;7.95;;;;;;;32.06;31.91;99278.47;5117972;27;20046;-71
2023/08/31 07:13:27;;;;;;;12.52;9.02;;;;;;;32.22;31.96;99292.47;5118465;27;20065;-71
2023/08/31 07:15:52;;;;;;;12.32;8.93;;;;;;;32.00;31.98;99274.00;5100036;27;20057;-72
2023/08/31 07:18:17;;;;;;;11.00;7.53;;;;;;;31.63;32.67;99276.53;5100027;27;20035;-72
2023/08/31 07:20:45;;;;;;;15.07;8.95;;;;;;;32.08;32.35;99267.19;5118785;27;20046;-73
2023/08/31 07:23:10;;;;;;;13.30;7.53;;;;;;;32.08;32.06;99273.53;5099490;27;20054;-72
2023/08/31 07:25:35;;;;;;;9.32;7.90;;;;;;;32.50;31.97;99264.63;5118537;27;20038;-71
2023/08/31 07:28:01;;;;;;;10.55;7.45;;;;;;;31.75;32.28;99268.16;5099726;27;20050;-71
2023/08/31 07:30:26;;;;;;;11.77;8.73;;;;;;;31.42;32.33;99287.50;5118483;27;20488;-72
2023/08/31 07:32:51;;;;;;;13.40;8.00;;;;;;;31.20;33.11;99263.50;5118386;27;20046;-71
2023/08/31 07:35:16;;;;;;;12.00;8.65;;;;;;;31.48;33.03;99257.03;5118118;27;20042;-72
2023/08/31 07:37:41;;;;;;;15.45;8.07;;;;;;;31.20;32.86;99263.50;5100078;27;20512;-70
2023/08/31 07:40:09;;;;;;;19.27;9.32;;;;;;;30.42;33.92;99269.03;5117954;27;20050;-72
2023/08/31 07:42:35;;;;;;;13.90;8.10;;;;;;;29.38;35.54;99260.84;5082548;27;20054;-72
2023/08/31 07:45:00;;;;;;;13.90;8.38;;;;;;;28.83;36.67;99271.31;5098641;27;20429;-71
2023/08/31 07:47:25;;;;;;;12.20;7.97;;;;;;;28.46;37.32;99267.88;5116689;27;20045;-72
2023/08/31 07:49:50;;;;;;;16.33;8.82;;;;;;;28.03;37.68;99268.03;5081851;27;20047;-72
2023/08/31 07:52:16;;;;;;;15.00;8.40;;;;;;;27.54;38.72;99252.63;5117632;27;20049;-72
2023/08/31 07:54:41;;;;;;;11.85;7.82;;;;;;;27.86;38.81;99272.50;5099017;27;20059;-72
2023/08/31 07:57:06;;;;;;;11.77;7.93;;;;;;;28.09;38.39;99262.47;5117231;27;20046;-72
2023/08/31 07:59:31;;;;;;;11.82;7.95;;;;;;;27.95;38.99;99263.72;5099172;27;20042;-71
2023/08/31 08:01:56;;;;;;;12.18;8.57;;;;;;;28.04;38.83;99264.22;5095961;27;20069;-71
2023/08/31 08:04:21;;;;;;;12.43;7.68;;;;;;;28.12;38.35;99266.63;5095797;27;20043;-70
2023/08/31 08:06:49;;;;;;;12.75;8.00;;;;;;;28.30;37.56;99274.03;5097028;27;20517;-71
2023/08/31 08:09:15;;;;;;;9.80;6.72;;;;;;;28.66;37.82;99273.06;5095439;27;20062;-73
2023/08/31 08:11:42;;;;;;;12.60;7.68;;;;;;;29.61;36.08;99248.97;5095291;27;20055;-71
2023/08/31 08:14:07;;;;;;;9.95;7.25;;;;;;;30.75;34.53;99265.50;5097141;27;20050;-73
2023/08/31 08:16:32;;;;;;;13.90;7.25;;;;;;;31.48;32.51;99231.41;5098665;27;20046;-72
2023/08/31 08:18:57;;;;;;;13.23;8.07;;;;;;;32.41;32.14;99231.13;5117109;27;20400;-71
2023/08/31 08:21:22;;;;;;;10.10;7.25;;;;;;;33.68;30.95;99225.72;5116984;27;20038;-70
2023/08/31 08:23:50;;;;;;;11.23;8.27;;;;;;;34.57;29.25;99219.88;5117212;27;20053;-75
2023/08/31 08:26:15;;;;;;;11.07;7.97;;;;;;;35.18;28.44;99225.41;5117183;27;20038;-72
2023/08/31 08:28:41;;;;;;;14.38;8.30;;;;;;;36.41;27.95;99237.69;5098048;27;20058;-72
2023/08/31 08:31:06;;;;;;;14.90;7.55;;;;;;;37.77;26.48;99236.44;5098368;27;20042;-74
2023/08/31 08:33:31;;;;;;;12.25;8.13;;;;;;;39.17;25.09;99272.78;5097439;27;20065;-72
2023/08/31 08:35:57;;;;;;;9.05;7.53;;;;;;;39.08;23.58;99240.34;5116650;27;20039;-73
2023/08/31 08:38:22;;;;;;;12.68;8.05;;;;;;;38.81;23.08;99246.66;5098155;27;20047;-73
2023/08/31 08:40:47;;;;;;;9.55;7.45;;;;;;;38.49;23.87;99266.88;5097521;27;20047;-71
2023/08/31 08:43:13;;;;;;;11.43;7.63;;;;;;;39.11;23.08;99256.44;5116818;27;20433;-74
2023/08/31 08:45:41;;;;;;;11.35;8.25;;;;;;;39.24;22.20;99229.72;5116932;27;20400;-73
2023/08/31 08:48:07;;;;;;;13.05;8.15;;;;;;;40.03;22.77;99235.97;5097621;27;20039;-74
2023/08/31 08:50:34;;;;;;;11.55;8.27;;;;;;;40.67;22.05;99236.72;5116712;27;20065;-73
2023/08/31 08:53:01;;;;;;;14.73;9.20;;;;;;;41.57;21.56;99255.06;5116733;27;20046;-73
2023/08/31 08:55:27;;;;;;;10.27;9.05;;;;;;;41.90;20.89;99247.94;5116469;27;20046;-73
2023/08/31 08:57:52;;;;;;;9.50;8.60;;;;;;;41.33;20.81;99239.47;5116916;27;20030;-72
2023/08/31 09:00:17;;;;;;;14.43;8.80;;;;;;;41.52;20.97;99241.22;5116630;27;20037;-72
2023/08/31 09:02:43;;;;;;;11.40;9.23;;;;;;;41.86;20.79;99240.53;5116465;27;20046;-72
2023/08/31 09:05:08;;;;;;;12.65;9.25;;;;;;;42.68;20.28;99229.25;5116394;27;20045;-71
2023/08/31 09:07:37;;;;;;;11.70;8.30;;;;;;;43.44;19.55;99239.84;5116229;27;20051;-72
2023/08/31 09:10:03;;;;;;;11.40;10.05;;;;;;;43.78;18.75;99241.69;5079708;27;20055;-73
2023/08/31 09:12:29;;;;;;;12.20;9.38;;;;;;;43.76;19.02;99241.22;5115624;27;20054;-73
2023/08/31 09:15:04;;;;;;;9.38;8.38;;;;;;;44.38;18.63;99224.47;5116251;27;20042;-72
2023/08/31 09:17:42;;;;;;;11.00;9.50;;;;;;;44.96;17.87;99241.47;5096988;27;20050;-71
2023/08/31 09:20:09;;;;;;;9.77;8.88;;;;;;;43.90;17.35;99247.41;5116214;27;20042;-71
2023/08/31 09:22:34;;;;;;;9.43;8.63;;;;;;;41.93;18.15;99257.66;5097378;27;20531;-73
2023/08/31 09:25:00;;;;;;;9.40;8.45;;;;;;;40.41;19.83;99231.72;5096771;27;20515;-72
2023/08/31 09:27:25;;;;;;;11.45;8.55;;;;;;;39.89;20.27;99235.97;5115698;27;20436;-73
2023/08/31 09:29:55;;;;;;;8.05;7.18;;;;;;;39.01;21.21;99229.59;5115796;27;20038;-72
2023/08/31 09:32:20;;;;;;;10.40;8.30;;;;;;;38.15;21.86;99220.59;5115274;27;20066;-72
2023/08/31 09:34:47;;;;;;;12.98;7.53;;;;;;;37.87;22.35;99226.28;5097293;27;20425;-72
2023/08/31 09:37:12;;;;;;;23.25;8.18;;;;;;;37.81;22.66;99233.06;5096935;27;20050;-75
2023/08/31 09:39:40;;;;;;;8.45;7.65;;;;;;;37.79;22.59;99217.47;5115822;27;20039;-75
2023/08/31 09:42:06;;;;;;;10.95;8.25;;;;;;;37.81;22.65;99225.53;5115878;27;20411;-75
2023/08/31 09:44:31;;;;;;;11.88;8.13;;;;;;;37.18;23.54;99224.84;5116186;27;20412;-75
2023/08/31 09:46:58;;;;;;;12.32;7.82;;;;;;;36.40;24.23;99230.47;5116079;27;20030;-76
2023/08/31 09:49:24;;;;;;;8.82;7.45;;;;;;;35.49;25.63;99226.19;5116484;27;20436;-75
2023/08/31 09:51:51;;;;;;;11.35;7.28;;;;;;;35.07;25.84;99232.91;5115990;27;20488;-74
2023/08/31 09:54:18;;;;;;;10.50;7.82;;;;;;;34.64;26.11;99242.59;5097434;27;20042;-74
2023/08/31 09:56:46;;;;;;;10.98;6.85;;;;;;;34.17;26.92;99235.31;5116005;27;20393;-75
2023/08/31 09:59:12;;;;;;;9.77;6.70;;;;;;;34.22;27.41;99228.94;5115698;27;20051;-75
2023/08/31 10:01:39;;;;;;;9.07;6.75;;;;;;;34.68;27.30;99226.25;5097577;27;20034;-75
2023/08/31 10:04:05;;;;;;;9.00;7.22;;;;;;;35.32;27.03;99234.84;5115636;27;20046;-74
2023/08/31 10:06:31;;;;;;;12.88;7.22;;;;;;;35.29;26.23;99235.38;5115858;27;20051;-73
2023/08/31 10:08:56;;;;;;;15.73;7.55;;;;;;;35.19;26.19;99233.44;5115601;27;20058;-71
2023/08/31 10:11:25;;;;;;;11.95;7.60;;;;;;;34.99;26.36;99227.91;5118711;27;20039;-72
2023/08/31 10:13:53;;;;;;;13.23;8.23;;;;;;;34.55;26.92;99227.63;5100769;27;20057;-77
2023/08/31 10:16:19;;;;;;;13.48;7.47;;;;;;;32.97;28.34;99220.59;5119819;27;20038;-76
2023/08/31 10:18:45;;;;;;;9.48;7.40;;;;;;;31.50;29.86;99223.69;5120354;27;20401;-76
2023/08/31 10:21:10;;;;;;;11.07;7.32;;;;;;;30.25;31.67;99217.56;5118362;27;20043;-76
2023/08/31 10:23:35;;;;;;;11.90;7.35;;;;;;;29.40;33.39;99230.41;5117097;27;20041;-73
2023/08/31 10:26:03;;;;;;;10.35;7.45;;;;;;;28.78;34.82;99227.31;5118304;27;20039;-72
2023/08/31 10:28:29;;;;;;;10.77;7.18;;;;;;;28.30;34.96;99233.75;5121765;27;20519;-71
2023/08/31 10:31:04;;;;;;;11.43;7.72;;;;;;;28.02;35.63;99228.00;5103841;27;20042;-73
2023/08/31 10:33:43;;;;;;;10.60;7.43;;;;;;;27.66;36.62;99248.91;5103060;27;20039;-72
2023/08/31 10:36:16;;;;;;;10.05;7.10;;;;;;;27.21;37.80;99233.81;5114445;27;20035;-72
2023/08/31 10:38:45;;;;;;;12.93;7.35;;;;;;;26.99;38.63;99223.28;5102426;27;20038;-71
2023/08/31 10:41:10;;;;;;;10.60;6.82;;;;;;;26.71;39.21;99220.19;5101919;27;20047;-72
2023/08/31 10:43:54;;;;;;;13.02;7.00;;;;;;;26.66;39.63;99234.50;5101726;27;20064;-72
2023/08/31 10:46:31;;;;;;;8.38;6.32;;;;;;;26.49;40.06;99221.63;5125030;27;20030;-76
2023/08/31 10:49:08;;;;;;;14.80;7.05;;;;;;;26.48;40.47;99220.78;5122805;27;20033;-74
2023/08/31 10:51:35;;;;;;;15.35;8.13;;;;;;;26.48;40.13;99225.44;5103036;27;20124;-73
2023/08/31 10:54:26;;;;;;;11.63;6.93;;;;;;;26.22;40.91;99226.41;5116678;27;20094;-72
2023/08/31 10:57:00;;;;;;;11.10;7.13;;;;;;;26.07;41.72;99231.38;5116035;27;20851;-74
2023/08/31 10:59:40;;;;;;;10.32;7.05;;;;;;;25.98;42.49;99226.13;5117623;27;20038;-74
2023/08/31 11:02:06;;;;;;;12.63;8.25;;;;;;;25.82;43.19;99220.38;5117077;27;20031;-73
2023/08/31 11:04:56;;;;;;;11.93;7.40;;;;;;;25.93;42.80;99212.31;5118693;27;20413;-75
2023/08/31 11:07:25;;;;;;;11.02;7.22;;;;;;;25.77;43.78;99228.34;5118764;27;20055;-72
2023/08/31 11:09:51;;;;;;;10.18;7.22;;;;;;;25.76;43.43;99226.69;5112274;27;20492;-72
2023/08/31 11:12:16;;;;;;;18.38;7.88;;;;;;;25.65;42.96;99220.84;5118914;27;20805;-72
2023/08/31 11:14:41;;;;;;;11.75;6.70;;;;;;;25.51;43.40;99229.25;5100336;27;20520;-73
2023/08/31 11:17:07;;;;;;;9.98;7.13;;;;;;;25.47;43.71;99206.19;5118481;27;20039;-72
2023/08/31 11:19:33;;;;;;;13.10;6.97;;;;;;;25.32;43.77;99204.56;5118613;27;20042;-73
2023/08/31 11:22:02;;;;;;;11.77;6.90;;;;;;;25.22;44.10;99197.88;5117006;27;20042;-73
2023/08/31 11:24:27;;;;;;;13.63;7.60;;;;;;;25.29;44.45;99204.16;5118512;27;20389;-72
2023/08/31 11:26:53;;;;;;;11.00;7.13;;;;;;;25.26;44.69;99210.06;5099839;27;20094;-72
2023/08/31 11:29:19;;;;;;;10.98;7.88;;;;;;;25.16;44.91;99209.69;5118220;27;20492;-72